Forside
METAR-TAF:

METAR-TAF

Lufthavne :

Kulob, Tadsjikistan

Breddekreds: 37-59-18N, længdekreds: 069-48-18E, højde: 699 m

Aktuelle vejr

Denne rapport blev lavet for 21 minutter siden, kl. 17:00 UTC
Vind 12 kt fra nordnordøst
Temperatur 18°C
Fugtighed 45%
Tryk 1018 hPa
Sigt 10 km eller mere

METAR: UTDK 031700Z 03006MPS 9999 NSC 18/06 Q1018 R01/09//70 RMK QFE706/0942

Tid: 22:21 (17:21 UTC)

Vejrudsigter

Denne rapport blev lavet for 2 timer og 21 minutter siden, kl. 15:00 UTC
Foreløbig gælder fra 03 på 16 UTC til 04 på 01 UTC
Vind 10 kt fra nordnordøst
Sigt: 6000 m
Nogle få skyer i en højde af 6600 ft
Spredte skyer i en højde af 11000 ft
Midlertidig
fra 03 på 16 UTC til 04 på 01 UTC
Vind 4 kt fra varierende retninger

TAF: UTDK 031500Z 0316/0401 03005MPS 6000 FEW066 SCT110 TEMPO 0316/0401 VRB02MPS

Vejrobservationer og prognoser fra mere end 4000 lufthavne (METAR og TAF).

De gule og røde prikker repræsenterer de meteorologiske stationer.

Flyt musen over at se navnet på stationen.

Så klik over at se vejr observationer og prognoser.

At skifte det kort: Klik på de grønne knapper med et sort kors for at zoome ind; på den grønne knap med en bindestreg for at zoome ud; eller på de grønne pile for tilstødende kort.


METAR-TAF: